createdAt,value
2019-05-15T00:03:54.688Z,1.07
2019-05-15T00:09:19.054Z,0.93
2019-05-15T00:14:39.277Z,0.80
2019-05-15T00:19:59.960Z,0.70
2019-05-15T00:25:22.761Z,0.60
2019-05-15T00:30:42.941Z,0.90
2019-05-15T00:36:03.472Z,0.83
2019-05-15T00:41:24.007Z,0.90
2019-05-15T00:46:44.539Z,0.95
2019-05-15T00:52:05.104Z,0.80
2019-05-15T00:57:25.649Z,0.70
2019-05-15T01:02:46.174Z,1.23
2019-05-15T01:08:08.223Z,0.72
2019-05-15T01:13:28.956Z,0.73
2019-05-15T01:18:50.182Z,0.90
2019-05-15T01:24:10.736Z,0.90
2019-05-15T01:29:41.903Z,0.73
2019-05-15T01:34:53.775Z,0.70
2019-05-15T01:40:14.411Z,0.63
2019-05-15T01:45:35.073Z,0.80
2019-05-15T01:50:55.619Z,0.90
2019-05-15T01:56:18.579Z,0.82
2019-05-15T02:01:39.188Z,1.12
2019-05-15T02:07:00.060Z,1.03
2019-05-15T02:12:21.095Z,0.70
2019-05-15T02:17:41.639Z,0.90
2019-05-15T02:23:02.299Z,1.23
2019-05-15T02:28:22.984Z,1.20
2019-05-15T02:33:43.577Z,1.10
2019-05-15T02:39:04.178Z,0.83
2019-05-15T02:44:24.718Z,0.83
2019-05-15T02:49:45.274Z,0.83
2019-05-15T02:55:08.937Z,1.00
2019-05-15T03:00:41.855Z,1.00
2019-05-15T03:05:51.731Z,1.30
2019-05-15T03:11:12.396Z,1.20
2019-05-15T03:16:33.558Z,1.07
2019-05-15T03:21:54.193Z,0.63
2019-05-15T03:27:14.821Z,1.13
2019-05-15T03:32:43.675Z,0.67
2019-05-15T03:37:59.865Z,1.00
2019-05-15T03:43:20.084Z,1.00
2019-05-15T03:48:40.732Z,0.70
2019-05-15T03:54:01.317Z,0.90
2019-05-15T03:59:21.881Z,0.87
2019-05-15T04:04:42.507Z,0.80
2019-05-15T04:10:03.221Z,1.10
2019-05-15T04:15:24.727Z,1.40
2019-05-15T04:20:45.325Z,0.80
2019-05-15T04:26:09.483Z,1.20
2019-05-15T04:31:50.803Z,1.37
2019-05-15T04:36:54.215Z,1.20
2019-05-15T04:42:14.801Z,0.93
2019-05-15T04:47:35.370Z,1.30
2019-05-15T04:52:59.043Z,1.37
2019-05-15T04:58:20.679Z,1.00
2019-05-15T05:03:40.729Z,0.90
2019-05-15T05:09:01.325Z,1.15
2019-05-15T05:14:21.993Z,1.60
2019-05-15T05:19:42.552Z,1.60
2019-05-15T05:25:03.105Z,1.45
2019-05-15T05:30:24.446Z,1.45
2019-05-15T05:35:45.267Z,1.30
2019-05-15T05:41:08.201Z,1.62
2019-05-15T05:46:29.032Z,1.67
2019-05-15T05:51:49.612Z,1.80
2019-05-15T05:57:10.177Z,1.77
2019-05-15T06:02:43.853Z,1.70
2019-05-15T06:07:53.110Z,1.60
2019-05-15T06:13:13.707Z,2.15
2019-05-15T06:18:34.394Z,2.27
2019-05-15T06:23:56.381Z,2.17
2019-05-15T06:29:17.940Z,1.72
2019-05-15T06:34:38.632Z,2.17
2019-05-15T06:39:59.718Z,1.90
2019-05-15T06:45:20.776Z,1.47
2019-05-15T06:50:49.097Z,2.07
2019-05-15T06:56:10.339Z,1.75
2019-05-15T07:01:30.939Z,1.13
2019-05-15T07:06:51.599Z,1.80
2019-05-15T07:12:12.170Z,2.05
2019-05-15T07:17:32.768Z,1.35
2019-05-15T07:22:53.348Z,2.20
2019-05-15T07:28:13.944Z,2.05
2019-05-15T07:33:40.366Z,1.55
2019-05-15T07:38:57.950Z,1.90
2019-05-15T07:44:19.044Z,1.97
2019-05-15T07:49:39.651Z,2.27
2019-05-15T07:55:00.224Z,1.95
2019-05-15T08:00:28.873Z,2.55
2019-05-15T08:05:58.802Z,2.70
2019-05-15T08:11:20.464Z,2.50
2019-05-15T08:16:34.463Z,2.72
2019-05-15T08:21:55.015Z,2.65
2019-05-15T08:27:15.741Z,2.50
2019-05-15T08:32:38.707Z,2.67
2019-05-15T08:37:58.735Z,2.85
2019-05-15T08:43:19.402Z,3.00
2019-05-15T08:48:39.965Z,1.85
2019-05-15T08:54:00.557Z,2.40
2019-05-15T08:59:21.255Z,2.92
2019-05-15T09:04:41.833Z,3.05
2019-05-15T09:10:02.374Z,2.90
2019-05-15T09:15:26.265Z,2.98
2019-05-15T09:20:49.282Z,3.02
2019-05-15T09:26:09.424Z,3.00
2019-05-15T09:31:30.143Z,2.70
2019-05-15T09:36:50.765Z,1.95
2019-05-15T09:42:11.337Z,2.83
2019-05-15T09:47:31.901Z,3.12
2019-05-15T09:52:52.451Z,2.27
2019-05-15T09:58:13.035Z,3.10
2019-05-15T10:03:33.680Z,3.08
2019-05-15T10:08:54.296Z,3.00
2019-05-15T10:14:15.031Z,2.90
2019-05-15T10:19:35.668Z,2.70
2019-05-15T10:24:58.590Z,2.75
2019-05-15T10:30:19.689Z,2.87
2019-05-15T10:35:40.262Z,3.20
2019-05-15T10:41:08.714Z,2.90
2019-05-15T10:46:23.200Z,2.75
2019-05-15T10:51:43.763Z,2.52
2019-05-15T10:57:05.384Z,2.95
2019-05-15T11:02:28.921Z,3.02
2019-05-15T11:07:49.056Z,3.00
2019-05-15T11:13:09.614Z,2.80
2019-05-15T11:18:31.078Z,2.87
2019-05-15T11:23:51.642Z,2.70
2019-05-15T11:29:12.211Z,2.25
2019-05-15T11:34:32.783Z,2.98
2019-05-15T11:39:53.353Z,2.77
2019-05-15T11:45:14.009Z,2.33
2019-05-15T11:50:36.302Z,2.70
2019-05-15T11:55:56.844Z,2.58
2019-05-15T12:01:19.250Z,2.52
2019-05-15T12:06:39.845Z,2.75
2019-05-15T12:12:00.420Z,2.30
2019-05-15T12:17:20.999Z,2.50
2019-05-15T12:22:41.533Z,2.22
2019-05-15T12:28:02.104Z,1.98
2019-05-15T12:33:22.765Z,1.57
2019-05-15T12:38:43.631Z,1.82
2019-05-15T13:00:12.304Z,1.80
2019-05-15T13:10:49.024Z,1.92
2019-05-15T13:16:09.639Z,1.87
2019-05-15T13:21:30.225Z,1.95
2019-05-15T13:26:50.795Z,2.00
2019-05-15T13:32:12.594Z,2.12
2019-05-15T13:42:51.779Z,2.00
2019-05-15T13:48:11.710Z,2.08
2019-05-15T13:53:32.357Z,2.20
2019-05-15T13:58:52.941Z,1.67
2019-05-15T14:04:13.552Z,1.90
2019-05-15T14:09:34.735Z,2.27
2019-05-15T14:14:58.033Z,1.50
2019-05-15T14:20:18.704Z,1.80
2019-05-15T14:25:39.285Z,1.90
2019-05-15T14:30:59.987Z,1.87
2019-05-15T14:36:20.656Z,1.75
2019-05-15T14:41:41.234Z,1.87
2019-05-15T14:47:01.821Z,1.65
2019-05-15T14:52:22.556Z,1.90
2019-05-15T14:57:43.148Z,1.40
2019-05-15T15:03:04.190Z,1.90
2019-05-15T15:08:25.573Z,1.70
2019-05-15T15:13:46.343Z,1.87
2019-05-15T15:19:06.917Z,1.80
2019-05-15T15:24:27.490Z,1.30
2019-05-15T15:29:48.357Z,2.20
2019-05-15T15:35:10.348Z,2.00
2019-05-15T15:45:45.597Z,1.72
2019-05-15T15:51:08.946Z,1.30
2019-05-15T15:56:29.116Z,1.60
2019-05-15T16:01:50.070Z,1.50
2019-05-15T16:07:10.593Z,1.80
2019-05-15T16:12:31.253Z,1.77
2019-05-15T16:17:52.369Z,2.20
2019-05-15T16:23:12.924Z,2.37
2019-05-15T16:28:33.491Z,1.80
2019-05-15T16:33:54.079Z,2.20
2019-05-15T16:39:14.966Z,2.30
2019-05-15T16:44:38.190Z,2.05
2019-05-15T16:49:58.062Z,2.27
2019-05-15T16:55:20.525Z,1.83
2019-05-15T17:00:41.561Z,2.00
2019-05-15T17:06:02.100Z,2.53
2019-05-15T17:11:22.684Z,1.95
2019-05-15T17:16:44.141Z,2.20
2019-05-15T17:22:04.689Z,2.20
2019-05-15T17:27:25.228Z,1.60
2019-05-15T17:32:45.848Z,2.27
2019-05-15T17:38:06.453Z,2.20
2019-05-15T17:43:28.749Z,2.83
2019-05-15T17:48:55.617Z,2.53
2019-05-15T17:54:13.954Z,2.45
2019-05-15T17:59:37.927Z,2.20
2019-05-15T18:05:00.923Z,3.17
2019-05-15T18:10:23.505Z,2.70
2019-05-15T18:15:45.747Z,2.47
2019-05-15T18:21:08.657Z,2.50
2019-05-15T18:26:29.678Z,2.37
2019-05-15T18:31:50.295Z,2.50
2019-05-15T18:37:13.240Z,2.33
2019-05-15T18:42:34.837Z,2.37
2019-05-15T18:47:58.470Z,2.70
2019-05-15T18:53:18.471Z,2.80
2019-05-15T18:58:40.429Z,2.27
2019-05-15T19:09:18.986Z,2.52
2019-05-15T19:14:39.790Z,2.55
2019-05-15T19:20:02.503Z,2.98
2019-05-15T19:25:25.481Z,2.72
2019-05-15T19:30:48.157Z,2.22
2019-05-15T19:36:10.495Z,2.63
2019-05-15T19:41:32.807Z,2.67
2019-05-15T19:46:55.509Z,2.80
2019-05-15T19:52:18.074Z,2.58
2019-05-15T20:00:40.050Z,2.20
2019-05-15T20:06:04.313Z,2.80
2019-05-15T20:11:28.870Z,2.60
2019-05-15T20:16:52.517Z,2.40
2019-05-15T20:22:18.908Z,2.77
2019-05-15T20:27:44.884Z,2.52
2019-05-15T20:33:09.617Z,2.92
2019-05-15T20:38:34.004Z,3.12
2019-05-15T20:44:01.277Z,2.87
2019-05-15T20:49:28.443Z,3.42
2019-05-15T20:54:50.084Z,2.95
2019-05-15T21:00:13.932Z,2.85
2019-05-15T21:05:38.129Z,3.08
2019-05-15T21:11:02.896Z,3.08
2019-05-15T21:16:27.988Z,3.00
2019-05-15T21:21:51.272Z,2.87
2019-05-15T21:27:14.884Z,3.25
2019-05-15T21:32:38.513Z,2.90
2019-05-15T21:38:00.781Z,3.15
2019-05-15T21:43:24.730Z,4.25
2019-05-15T21:48:48.827Z,3.80
2019-05-15T21:54:12.779Z,4.15
2019-05-15T21:59:38.394Z,4.40
2019-05-15T22:05:02.996Z,4.33
2019-05-15T22:10:26.668Z,3.62
2019-05-15T22:15:52.400Z,3.87
2019-05-15T22:21:18.616Z,4.33
2019-05-15T22:26:41.875Z,3.60
2019-05-15T22:32:04.840Z,3.87
2019-05-15T22:37:29.554Z,4.47
2019-05-15T22:42:52.922Z,4.90
2019-05-15T22:48:18.235Z,4.30
2019-05-15T22:53:41.603Z,3.85
2019-05-15T22:59:08.414Z,3.80
2019-05-15T23:04:32.413Z,3.80
2019-05-15T23:09:58.309Z,3.83
2019-05-15T23:15:22.117Z,4.03
2019-05-15T23:20:47.848Z,3.72
2019-05-15T23:26:12.027Z,3.47
2019-05-15T23:31:34.532Z,3.98
2019-05-15T23:36:57.760Z,4.10
2019-05-15T23:42:22.641Z,4.40
2019-05-15T23:47:48.473Z,4.35
2019-05-15T23:53:10.741Z,3.70
2019-05-15T23:58:33.869Z,3.27
